Time;durP1;ratioP1;P1;durP2;ratioP2;P2;SDS_P1;SDS_P2;PMS_P1;PMS_P2;Temp;Humidity;BMP_temperature;BMP_pressure;BME280_temperature;BME280_humidity;BME280_pressure;Samples;Min_cycle;Max_cycle;Signal;HPM_P1;HPM_P2
2022/02/04 00:28:10;;;;;;;;;;;;;;;18.15;44.83;99431.47;3951773;32;15725585;-70
2022/02/04 00:30:41;;;;;;;;;;;;;;;18.15;44.83;99431.47;4424758;32;20093;-71
2022/02/04 00:33:09;;;;;;;;;;;;;;;17.60;45.69;99418.91;4428976;32;20305;-71
2022/02/04 00:40:52;;;;;;;;;;;;;;;17.66;45.97;99413.19;3949422;32;15721296;-71
2022/02/04 00:43:18;;;;;;;;;;;;;;;17.44;46.79;99394.09;4431713;32;19968;-71
2022/02/04 00:53:52;;;;;;;;;;;;;;;17.82;46.66;99393.25;3951839;32;15722554;-70
2022/02/04 00:56:31;;;;;;;;;;;;;;;17.82;46.66;99393.25;4428447;32;19961;-70
2022/02/04 01:26:22;;;;;;;;;;;;;;;18.39;47.18;99474.41;4439561;32;19961;-69
2022/02/04 01:28:51;;;;;;;;;;;;;;;17.78;49.20;99469.59;4439953;32;20042;-68
2022/02/04 01:31:19;;;;;;;;;;;;;;;17.44;49.94;99476.56;4438346;32;20370;-68
2022/02/04 01:33:46;;;;;;;;;;;;;;;17.77;48.98;99484.34;4438151;32;20003;-68
2022/02/04 01:36:12;;;;;;;;;;;;;;;17.72;48.94;99488.72;4437308;32;19961;-68
2022/02/04 01:38:38;;;;;;;;;;;;;;;17.32;49.57;99480.66;4439704;32;20620;-69
2022/02/04 01:41:03;;;;;;;;;;;;;;;16.67;50.52;99501.94;4438107;32;20000;-68
2022/02/04 01:43:29;;;;;;;;;;;;;;;16.51;50.69;99494.09;4441395;32;19953;-68
2022/02/04 01:45:56;;;;;;;;;;;;;;;16.66;50.59;99499.59;4440180;32;19957;-68
2022/02/04 01:48:21;;;;;;;;;;;;;;;16.26;50.03;99511.22;4437104;32;19953;-68
2022/02/04 01:50:47;;;;;;;;;;;;;;;16.29;50.27;99501.69;4436449;32;20527;-68
2022/02/04 01:53:14;;;;;;;;;;;;;;;16.35;49.65;99502.50;4437806;32;19967;-68
2022/02/04 01:55:40;;;;;;;;;;;;;;;16.32;48.91;99514.88;4442755;32;20535;-68
2022/02/04 01:58:06;;;;;;;;;;;;;;;16.14;49.66;99532.31;4442091;32;19992;-68
2022/02/04 02:00:32;;;;;;;;;;;;;;;15.82;49.39;99526.66;4440136;32;20018;-68
2022/02/04 02:02:58;;;;;;;;;;;;;;;16.25;48.73;99530.31;4443131;32;20394;-68
2022/02/04 02:05:23;;;;;;;;;;;;;;;16.26;48.74;99523.34;4436544;32;20639;-68
2022/02/04 02:07:49;;;;;;;;;;;;;;;15.89;48.50;99534.69;4438976;32;19985;-68
2022/02/04 02:10:18;;;;;;;;;;;;;;;15.99;48.08;99535.31;4434359;32;20038;-68
2022/02/04 02:35:34;;;;;;;;;;;;;;;15.15;46.43;99557.66;4426624;32;20402;-68
2022/02/04 02:46:27;;;;;;;;;;;;;;;15.50;46.48;99549.81;3956051;32;15727554;-67
2022/02/04 02:59:20;;;;;;;;;;;;;;;16.06;46.30;99553.91;3948654;32;15730460;-67
2022/02/04 03:01:48;;;;;;;;;;;;;;;16.06;46.30;99553.91;4433275;32;19969;-68
2022/02/04 03:04:16;;;;;;;;;;;;;;;15.74;46.15;99538.97;4435740;32;19954;-69
2022/02/04 03:06:43;;;;;;;;;;;;;;;15.53;45.97;99552.41;4431776;32;20292;-69
2022/02/04 03:09:08;;;;;;;;;;;;;;;15.53;45.73;99554.50;4431055;32;19957;-69
2022/02/04 03:11:34;;;;;;;;;;;;;;;15.70;45.67;99559.03;4428234;32;19953;-69
2022/02/04 03:14:00;;;;;;;;;;;;;;;15.83;46.09;99561.44;4416269;32;19953;-69
2022/02/04 03:16:26;;;;;;;;;;;;;;;15.81;46.61;99564.78;4428202;32;20418;-69
2022/02/04 03:18:54;;;;;;;;;;;;;;;15.73;45.47;99563.72;4433904;32;19949;-69
2022/02/04 03:21:26;;;;;;;;;;;;;;;15.32;45.04;99562.25;4432510;32;20597;-69
2022/02/04 03:23:56;;;;;;;;;;;;;;;15.70;45.49;99561.09;4431398;32;19949;-69
2022/02/04 03:26:58;;;;;;;;;;;;;;;15.55;45.45;99569.72;4432374;32;20430;-69
2022/02/04 03:29:08;;;;;;;;;;;;;;;14.86;46.46;99580.50;4432943;32;20002;-69
2022/02/04 03:31:40;;;;;;;;;;;;;;;14.94;45.71;99584.47;4435579;32;19953;-69
2022/02/04 03:34:05;;;;;;;;;;;;;;;15.06;45.21;99586.12;4432370;32;19957;-69
2022/02/04 03:36:31;;;;;;;;;;;;;;;14.85;45.01;99584.59;4430693;32;19979;-68
2022/02/04 03:38:57;;;;;;;;;;;;;;;14.96;45.52;99581.91;4435091;32;20040;-68
2022/02/04 03:41:23;;;;;;;;;;;;;;;14.58;44.99;99585.78;4428872;32;20007;-68
2022/02/04 03:43:48;;;;;;;;;;;;;;;14.77;44.88;99592.75;4433772;32;20190;-68
2022/02/04 03:46:14;;;;;;;;;;;;;;;14.48;45.09;99595.66;4434825;32;19965;-69
2022/02/04 03:48:39;;;;;;;;;;;;;;;14.45;44.85;99593.06;4433150;32;20012;-69
2022/02/04 03:51:05;;;;;;;;;;;;;;;14.01;45.16;99607.25;4430831;32;20099;-69
2022/02/04 03:53:30;;;;;;;;;;;;;;;14.29;45.65;99611.34;4431905;32;19992;-69
2022/02/04 03:55:56;;;;;;;;;;;;;;;14.24;45.48;99609.22;4433966;32;19961;-70
2022/02/04 03:58:22;;;;;;;;;;;;;;;14.39;45.51;99601.44;4431455;32;20017;-70
2022/02/04 04:00:47;;;;;;;;;;;;;;;14.14;45.34;99606.94;4430396;32;19997;-70
2022/02/04 04:03:13;;;;;;;;;;;;;;;14.33;45.38;99616.81;4431171;32;19957;-70
2022/02/04 04:05:44;;;;;;;;;;;;;;;14.34;45.27;99604.19;4434815;32;20018;-70
2022/02/04 04:08:10;;;;;;;;;;;;;;;14.03;45.39;99599.06;4434496;32;19958;-70
2022/02/04 04:10:40;;;;;;;;;;;;;;;14.21;45.25;99601.69;4419591;32;19964;-70
2022/02/04 04:13:06;;;;;;;;;;;;;;;14.13;45.02;99597.69;4424420;32;19972;-70
2022/02/04 04:15:32;;;;;;;;;;;;;;;13.82;45.57;99595.38;4419000;32;20346;-70
2022/02/04 04:17:57;;;;;;;;;;;;;;;13.82;45.31;99597.41;4421980;32;19973;-70
2022/02/04 04:20:24;;;;;;;;;;;;;;;13.73;45.51;99592.66;4418734;32;20231;-70
2022/02/04 04:22:50;;;;;;;;;;;;;;;13.86;45.28;99595.16;4421287;32;19984;-70
2022/02/04 04:25:16;;;;;;;;;;;;;;;14.02;45.96;99603.16;4422609;32;19965;-70
2022/02/04 04:27:42;;;;;;;;;;;;;;;13.87;45.32;99603.16;4422739;32;20720;-70
2022/02/04 04:30:09;;;;;;;;;;;;;;;13.72;45.45;99602.38;4420610;32;20514;-70
2022/02/04 04:32:34;;;;;;;;;;;;;;;13.71;45.99;99608.53;4421937;32;20001;-70
2022/02/04 04:35:01;;;;;;;;;;;;;;;13.55;45.51;99606.19;4422270;32;20593;-70
2022/02/04 04:37:26;;;;;;;;;;;;;;;13.33;45.72;99606.56;4419136;32;20001;-70
2022/02/04 04:42:47;;;;;;;;;;;;;;;14.09;44.57;99616.91;3947524;32;15833533;-70
2022/02/04 05:29:18;;;;;;;;;;;;;;;13.49;45.06;99642.81;3952927;32;15725205;-69
2022/02/04 05:31:44;;;;;;;;;;;;;;;13.49;45.06;99642.81;4432159;32;19957;-70
2022/02/04 05:34:11;;;;;;;;;;;;;;;13.31;45.25;99645.00;4429807;32;19968;-71
2022/02/04 05:36:42;;;;;;;;;;;;;;;13.32;45.11;99652.25;4434424;32;20038;-70
2022/02/04 05:39:08;;;;;;;;;;;;;;;13.37;44.85;99648.72;4432113;32;20004;-72
2022/02/04 05:41:38;;;;;;;;;;;;;;;13.24;45.65;99646.19;4432131;32;20129;-72
2022/02/04 05:44:09;;;;;;;;;;;;;;;13.05;45.60;99650.41;4431968;32;20018;-72
2022/02/04 05:46:46;;;;;;;;;;;;;;;12.84;45.74;99645.81;4437893;32;19987;-71
2022/02/04 05:49:14;;;;;;;;;;;;;;;13.23;45.37;99652.31;4418788;32;20342;-71
2022/02/04 05:54:26;;;;;;;;;;;;;;;13.64;44.76;99671.91;3951005;32;15722491;-71
2022/02/04 05:57:02;;;;;;;;;;;;;;;13.64;44.76;99671.91;4428187;32;19990;-70
2022/02/04 06:23:29;;;;;;;;;;;;;;;13.43;44.11;99664.53;4425671;32;20442;-71
2022/02/04 06:25:54;;;;;;;;;;;;;;;13.78;43.70;99661.88;4429790;32;20358;-71
2022/02/04 06:28:20;;;;;;;;;;;;;;;13.67;43.92;99651.13;4433052;32;20440;-71
2022/02/04 06:30:46;;;;;;;;;;;;;;;13.95;43.33;99655.25;4430781;32;20060;-71
2022/02/04 06:33:12;;;;;;;;;;;;;;;14.09;43.16;99656.50;4427098;32;20421;-71
2022/02/04 06:35:40;;;;;;;;;;;;;;;14.02;43.24;99651.22;4425604;32;19971;-71
2022/02/04 06:38:06;;;;;;;;;;;;;;;13.92;42.91;99652.59;4428153;32;19969;-71
2022/02/04 06:40:31;;;;;;;;;;;;;;;14.00;43.05;99657.37;4426298;32;20484;-71
2022/02/04 06:42:56;;;;;;;;;;;;;;;14.14;42.85;99650.16;4425437;32;19989;-71
2022/02/04 06:45:22;;;;;;;;;;;;;;;14.33;42.29;99640.19;4431894;32;19969;-71
2022/02/04 06:47:50;;;;;;;;;;;;;;;14.06;43.00;99637.69;4433487;32;19977;-71
2022/02/04 06:50:16;;;;;;;;;;;;;;;14.33;42.79;99647.94;4426716;32;19994;-71
2022/02/04 06:52:43;;;;;;;;;;;;;;;14.23;42.93;99657.78;4424173;32;20377;-71
2022/02/04 06:55:09;;;;;;;;;;;;;;;14.22;42.60;99665.47;4426223;32;19962;-71
2022/02/04 06:57:34;;;;;;;;;;;;;;;14.36;42.16;99667.53;4429627;32;20387;-71
2022/02/04 07:00:00;;;;;;;;;;;;;;;14.42;42.37;99661.97;4427685;32;20005;-71
2022/02/04 07:02:27;;;;;;;;;;;;;;;14.34;42.37;99664.41;4413992;32;20026;-71
2022/02/04 07:04:53;;;;;;;;;;;;;;;14.46;42.65;99660.50;4430996;32;20394;-71
2022/02/04 07:07:19;;;;;;;;;;;;;;;14.46;42.99;99662.53;4422626;32;19972;-71
2022/02/04 07:10:10;;;;;;;;;;;;;;;14.34;41.89;99663.63;4429126;32;20451;-71
2022/02/04 07:12:34;;;;;;;;;;;;;;;14.31;42.06;99662.56;4425713;32;20076;-71
2022/02/04 07:20:11;;;;;;;;;;;;;;;14.36;41.36;99672.44;3948730;32;15726527;-71
2022/02/04 07:22:38;;;;;;;;;;;;;;;14.36;41.36;99672.44;4426743;32;19957;-71
2022/02/04 07:25:05;;;;;;;;;;;;;;;13.71;42.01;99677.16;4431012;32;20361;-71
2022/02/04 07:27:31;;;;;;;;;;;;;;;13.57;41.94;99680.72;4427625;32;20372;-71
2022/02/04 07:29:57;;;;;;;;;;;;;;;13.64;42.29;99673.94;4425103;32;20451;-71
2022/02/04 07:32:37;;;;;;;;;;;;;;;13.58;42.28;99673.84;4424444;32;19996;-71
2022/02/04 07:40:57;;;;;;;;;;;;;;;13.77;42.51;99691.41;4421438;32;20052;-70
2022/02/04 07:43:24;;;;;;;;;;;;;;;13.32;43.00;99669.19;4406903;32;19993;-70
2022/02/04 07:45:49;;;;;;;;;;;;;;;13.56;42.70;99686.91;4421029;32;20025;-71
2022/02/04 07:48:15;;;;;;;;;;;;;;;13.66;42.32;99691.97;4419903;32;19953;-71
2022/02/04 07:50:42;;;;;;;;;;;;;;;13.75;42.59;99693.94;4422386;32;20116;-70
2022/02/04 07:53:08;;;;;;;;;;;;;;;13.59;42.62;99692.34;4417302;32;20100;-70
2022/02/04 07:55:33;;;;;;;;;;;;;;;13.59;42.93;99689.53;4424793;32;19970;-70
2022/02/04 07:57:59;;;;;;;;;;;;;;;13.39;42.64;99683.75;4421032;32;20431;-70
2022/02/04 08:00:26;;;;;;;;;;;;;;;13.29;42.80;99689.94;4419160;32;19991;-70
2022/02/04 08:02:52;;;;;;;;;;;;;;;13.57;42.73;99696.94;4419111;32;20391;-70
2022/02/04 08:05:22;;;;;;;;;;;;;;;13.72;42.26;99701.34;4420379;32;20032;-70
2022/02/04 08:07:54;;;;;;;;;;;;;;;13.76;42.38;99704.78;4425308;32;20081;-70
2022/02/04 08:21:51;;;;;;;;;;;;;;;14.46;41.39;99722.00;4414686;32;20271;-70
2022/02/04 08:51:20;;;;;;;;;;;;;;;14.08;42.03;99751.13;3952008;32;15725191;-70
2022/02/04 08:56:22;;;;;;;;;;;;;;;14.49;41.21;99767.09;3947587;32;15723333;-70
2022/02/04 08:58:54;;;;;;;;;;;;;;;14.49;41.21;99767.09;4423200;32;19954;-69
2022/02/04 09:01:27;;;;;;;;;;;;;;;14.33;41.64;99763.97;4421524;32;20024;-71
2022/02/04 09:04:05;;;;;;;;;;;;;;;14.55;40.69;99765.13;4426169;32;20198;-71
2022/02/04 09:06:37;;;;;;;;;;;;;;;14.57;40.35;99762.59;4423762;32;19949;-69
2022/02/04 09:09:05;;;;;;;;;;;;;;;14.50;39.78;99771.47;4422849;32;19995;-69
2022/02/04 09:17:11;;;;;;;;;;;;;;;15.44;38.98;99790.72;4420851;32;19950;-69
2022/02/04 09:19:57;;;;;;;;;;;;;;;14.50;40.32;99796.94;4418620;32;20099;-69
2022/02/04 09:22:38;;;;;;;;;;;;;;;13.90;42.67;99782.44;4417930;32;20007;-69
2022/02/04 09:25:05;;;;;;;;;;;;;;;13.48;42.98;99799.53;4419489;32;19990;-69
2022/02/04 09:27:32;;;;;;;;;;;;;;;13.76;43.12;99783.94;4409921;32;20005;-69
2022/02/04 09:29:58;;;;;;;;;;;;;;;14.06;42.64;99785.56;4418094;32;20017;-69
2022/02/04 09:32:23;;;;;;;;;;;;;;;14.12;43.30;99780.03;4422024;32;20026;-71
2022/02/04 09:34:49;;;;;;;;;;;;;;;14.24;41.95;99786.69;4408697;32;20125;-70
2022/02/04 09:37:15;;;;;;;;;;;;;;;14.52;42.46;99780.28;4418616;32;20410;-69
2022/02/04 09:39:40;;;;;;;;;;;;;;;14.61;42.03;99777.34;4417484;32;20498;-70
2022/02/04 09:42:06;;;;;;;;;;;;;;;14.53;41.03;99783.88;4419833;32;19957;-71
2022/02/04 09:44:32;;;;;;;;;;;;;;;14.63;40.60;99776.84;4418223;32;20484;-70
2022/02/04 09:46:57;;;;;;;;;;;;;;;14.62;40.54;99769.59;4416017;32;20442;-70
2022/02/04 09:49:29;;;;;;;;;;;;;;;14.22;40.25;99780.69;4420189;32;19965;-69
2022/02/04 10:17:07;;;;;;;;;;;;;;;16.11;36.94;99809.41;3939045;32;15723408;-71
2022/02/04 10:19:49;;;;;;;;;;;;;;;16.11;36.94;99809.41;4410299;32;20273;-69
2022/02/04 10:24:54;;;;;;;;;;;;;;;15.70;37.54;99822.03;3949590;32;15722613;-68
2022/02/04 10:27:20;;;;;;;;;;;;;;;15.70;37.54;99822.03;4420189;32;20139;-69
2022/02/04 10:30:06;;;;;;;;;;;;;;;15.47;37.55;99814.50;4420197;32;20425;-68
2022/02/04 10:37:45;;;;;;;;;;;;;;;15.43;37.58;99808.25;3948413;32;15723348;-68
2022/02/04 10:40:32;;;;;;;;;;;;;;;15.43;37.58;99808.25;4428809;32;19945;-68
2022/02/04 10:45:59;;;;;;;;;;;;;;;14.67;38.42;99817.81;3946819;32;15918594;-68
2022/02/04 11:02:12;;;;;;;;;;;;;;;13.22;43.20;99825.87;3949753;32;15722423;-70
2022/02/04 11:51:49;;;;;;;;;;;;;;;17.13;35.38;99792.31;4431800;32;20305;-70
2022/02/04 11:59:35;;;;;;;;;;;;;;;17.54;33.20;99779.37;3951761;32;15722626;-68
2022/02/04 12:02:01;;;;;;;;;;;;;;;17.54;33.20;99779.37;4430506;32;20075;-69
2022/02/04 12:04:29;;;;;;;;;;;;;;;17.30;33.40;99758.25;4424764;32;20017;-69
2022/02/04 12:06:55;;;;;;;;;;;;;;;17.30;33.29;99767.59;4430146;32;20353;-69
2022/02/04 12:09:37;;;;;;;;;;;;;;;16.82;34.10;99766.75;4420045;32;20456;-69
2022/02/04 12:12:03;;;;;;;;;;;;;;;16.77;34.25;99776.00;4428201;32;20532;-69
2022/02/04 12:14:29;;;;;;;;;;;;;;;16.87;33.84;99800.09;4430216;32;20258;-69
2022/02/04 12:17:04;;;;;;;;;;;;;;;16.29;34.64;99794.87;4430361;32;20045;-69
2022/02/04 12:19:37;;;;;;;;;;;;;;;15.86;35.91;99787.41;4431400;32;20333;-68
2022/02/04 12:22:03;;;;;;;;;;;;;;;15.34;38.50;99797.03;4429688;32;20232;-68
2022/02/04 12:24:29;;;;;;;;;;;;;;;14.70;40.70;99793.44;4428128;32;20004;-68
2022/02/04 12:27:15;;;;;;;;;;;;;;;15.13;39.80;99775.59;4425938;32;19992;-70
2022/02/04 12:29:41;;;;;;;;;;;;;;;15.22;38.95;99789.63;4423000;32;19969;-69
2022/02/04 12:32:08;;;;;;;;;;;;;;;15.39;37.87;99777.28;4428583;32;20016;-69
2022/02/04 12:34:34;;;;;;;;;;;;;;;15.38;37.40;99778.56;4428676;32;19993;-69
2022/02/04 12:37:02;;;;;;;;;;;;;;;16.82;35.10;99777.31;4420808;32;20024;-69
2022/02/04 12:39:32;;;;;;;;;;;;;;;16.82;34.33;99792.31;4426916;32;19989;-69
2022/02/04 12:41:59;;;;;;;;;;;;;;;16.01;35.72;99799.47;4423825;32;20046;-71
2022/02/04 12:44:26;;;;;;;;;;;;;;;14.74;38.92;99802.50;4433095;32;20413;-69
2022/02/04 12:46:53;;;;;;;;;;;;;;;14.67;39.73;99825.56;4425455;32;20344;-69
2022/02/04 12:49:20;;;;;;;;;;;;;;;13.38;43.53;99834.75;4426274;32;20001;-68
2022/02/04 13:08:11;;;;;;;;;;;;;;;14.35;43.53;99851.97;4438689;32;20034;-68
2022/02/04 13:10:36;;;;;;;;;;;;;;;14.61;42.85;99845.28;4441479;32;20371;-70
2022/02/04 13:13:04;;;;;;;;;;;;;;;14.57;41.97;99846.75;4441768;32;19956;-69
2022/02/04 13:15:33;;;;;;;;;;;;;;;14.54;41.90;99893.03;4443800;32;19999;-70
2022/02/04 13:17:59;;;;;;;;;;;;;;;13.97;43.02;99883.88;4441896;32;19953;-70
2022/02/04 13:20:26;;;;;;;;;;;;;;;13.07;46.32;99932.37;4442767;32;19957;-69
2022/02/04 13:22:54;;;;;;;;;;;;;;;12.12;47.08;99894.31;4444624;32;19953;-72
2022/02/04 13:25:22;;;;;;;;;;;;;;;12.32;48.02;99888.22;4435026;32;20023;-71
2022/02/04 13:28:08;;;;;;;;;;;;;;;13.07;47.20;99890.78;4443127;32;19965;-70
2022/02/04 13:30:35;;;;;;;;;;;;;;;13.84;46.31;99877.69;4444107;32;20072;-70
2022/02/04 13:33:02;;;;;;;;;;;;;;;14.71;43.40;99882.78;4444382;32;20006;-70
2022/02/04 13:38:46;;;;;;;;;;;;;;;15.65;39.43;99893.66;3950826;32;15722143;-70
2022/02/04 13:42:29;;;;;;;;;;;;;;;15.65;39.43;99893.66;4424966;32;19964;-71
2022/02/04 13:44:17;;;;;;;;;;;;;;;15.73;39.62;99886.28;4427378;32;20044;-71
2022/02/04 13:46:45;;;;;;;;;;;;;;;16.53;38.40;99891.97;4428261;32;20000;-69
2022/02/04 13:51:54;;;;;;;;;;;;;;;16.46;36.85;99909.47;3945287;32;15722593;-69
2022/02/04 13:57:25;;;;;;;;;;;;;;;16.28;38.19;99901.19;3953965;31;15723091;-69
2022/02/04 14:00:02;;;;;;;;;;;;;;;16.28;38.19;99901.19;4423401;32;19993;-69
2022/02/04 14:02:36;;;;;;;;;;;;;;;15.89;38.28;99908.41;4424577;32;19992;-69
2022/02/04 14:05:03;;;;;;;;;;;;;;;16.90;35.88;99907.09;4421538;32;20505;-70
2022/02/04 14:07:37;;;;;;;;;;;;;;;15.98;35.98;99914.75;4424103;32;19972;-70
2022/02/04 14:10:23;;;;;;;;;;;;;;;15.80;36.41;99906.50;4423798;32;19961;-70
2022/02/04 14:13:06;;;;;;;;;;;;;;;16.07;36.47;99918.75;4424398;32;20037;-70
2022/02/04 14:15:33;;;;;;;;;;;;;;;17.18;34.20;99913.81;4426208;32;20009;-70
2022/02/04 14:18:06;;;;;;;;;;;;;;;18.16;32.41;99928.50;4423429;32;19985;-70
2022/02/04 14:20:33;;;;;;;;;;;;;;;18.39;31.15;99933.03;4423487;32;20005;-70
2022/02/04 14:22:59;;;;;;;;;;;;;;;18.64;31.40;99947.13;4424372;32;20441;-70
2022/02/04 14:25:26;;;;;;;;;;;;;;;18.61;31.67;99955.91;4427398;32;20354;-70
2022/02/04 14:27:56;;;;;;;;;;;;;;;16.83;35.12;99969.25;4429372;32;19953;-70
2022/02/04 14:30:28;;;;;;;;;;;;;;;14.86;37.38;99951.56;4425558;32;20000;-69
2022/02/04 14:33:02;;;;;;;;;;;;;;;14.62;38.65;99948.00;4426467;32;19985;-70
2022/02/04 14:52:36;;;;;;;;;;;;;;;18.10;33.50;99948.37;4418565;32;20008;-70
2022/02/04 15:00:30;;;;;;;;;;;;;;;17.01;34.34;99964.06;4417861;32;20047;-70
2022/02/04 15:03:14;;;;;;;;;;;;;;;17.82;32.97;99976.69;4417563;32;20375;-71
2022/02/04 15:05:44;;;;;;;;;;;;;;;18.45;32.20;99979.41;4416212;32;20482;-71
2022/02/04 15:08:14;;;;;;;;;;;;;;;18.66;31.49;99986.50;4418528;32;19989;-70
2022/02/04 15:10:40;;;;;;;;;;;;;;;18.82;30.80;99978.00;4418440;32;20309;-71
2022/02/04 15:13:11;;;;;;;;;;;;;;;18.80;31.01;99996.91;4418675;32;20065;-71
2022/02/04 15:15:37;;;;;;;;;;;;;;;19.26;30.98;100003.81;4419542;32;20004;-70
2022/02/04 15:18:02;;;;;;;;;;;;;;;19.36;30.43;100004.34;4420591;32;20331;-70
2022/02/04 15:20:28;;;;;;;;;;;;;;;19.80;29.67;99998.66;4418059;32;20363;-70
2022/02/04 15:22:54;;;;;;;;;;;;;;;20.32;28.49;100013.94;4419815;32;19961;-70
2022/02/04 15:25:22;;;;;;;;;;;;;;;20.07;28.31;100023.56;4418609;32;19997;-69
2022/02/04 15:28:02;;;;;;;;;;;;;;;18.08;30.94;100027.06;4417995;32;19993;-69
2022/02/04 15:30:33;;;;;;;;;;;;;;;17.69;31.99;100060.91;4418036;32;20001;-69
2022/02/04 15:32:59;;;;;;;;;;;;;;;16.25;34.63;100041.31;4417229;32;19985;-69
2022/02/04 15:35:25;;;;;;;;;;;;;;;16.51;34.96;100047.88;4417292;32;20027;-69
2022/02/04 15:37:51;;;;;;;;;;;;;;;16.39;35.68;100045.38;4422062;32;20023;-71
2022/02/04 15:40:16;;;;;;;;;;;;;;;17.03;35.28;100043.91;4419283;32;20012;-69
2022/02/04 15:42:52;;;;;;;;;;;;;;;16.09;36.15;100044.69;4419124;32;20396;-68
2022/02/04 15:51:12;;;;;;;;;;;;;;;15.21;38.63;100068.66;3942182;32;15804179;-69
2022/02/04 15:53:54;;;;;;;;;;;;;;;15.21;38.63;100068.66;4424882;32;19975;-67
2022/02/04 16:04:43;;;;;;;;;;;;;;;11.29;47.00;100136.06;4422666;32;19993;-68
2022/02/04 16:07:09;;;;;;;;;;;;;;;11.07;48.01;100141.66;4423383;32;19965;-68
2022/02/04 16:09:36;;;;;;;;;;;;;;;11.56;47.42;100124.97;4424880;32;19945;-69
2022/02/04 16:12:10;;;;;;;;;;;;;;;11.92;46.57;100130.84;4425317;32;20186;-69
2022/02/04 16:14:44;;;;;;;;;;;;;;;12.04;46.15;100132.78;4423879;32;19962;-69
2022/02/04 16:17:20;;;;;;;;;;;;;;;12.36;45.73;100121.00;4423658;32;20020;-69
2022/02/04 16:19:52;;;;;;;;;;;;;;;12.36;45.70;100123.81;4425642;32;20134;-69
2022/02/04 16:22:32;;;;;;;;;;;;;;;12.48;45.12;100108.00;4427382;32;19994;-69
2022/02/04 16:25:15;;;;;;;;;;;;;;;12.36;44.76;100118.16;4430288;32;20699;-69
2022/02/04 16:30:18;;;;;;;;;;;;;;;13.28;44.52;100135.59;3938636;32;15725265;-68
2022/02/04 16:32:43;;;;;;;;;;;;;;;13.28;44.52;100135.59;4412250;32;20005;-69
2022/02/04 16:35:09;;;;;;;;;;;;;;;12.72;45.18;100140.06;4413963;32;19977;-68
2022/02/04 16:37:37;;;;;;;;;;;;;;;12.41;45.59;100128.84;4412668;32;19969;-68
2022/02/04 16:40:05;;;;;;;;;;;;;;;12.53;46.12;100153.34;4414296;32;20446;-68
2022/02/04 16:42:31;;;;;;;;;;;;;;;12.71;46.30;100152.59;4412995;32;19996;-68
2022/02/04 16:44:57;;;;;;;;;;;;;;;12.21;46.77;100165.13;4414561;32;20012;-69
2022/02/04 16:47:22;;;;;;;;;;;;;;;12.66;46.18;100164.50;4412803;32;20001;-69
2022/02/04 16:49:48;;;;;;;;;;;;;;;12.43;46.36;100163.06;4410868;32;19977;-68
2022/02/04 16:52:15;;;;;;;;;;;;;;;12.33;45.85;100158.59;4410968;32;19954;-69
2022/02/04 16:54:42;;;;;;;;;;;;;;;12.51;46.01;100169.16;4417815;32;20031;-69
2022/02/04 16:57:09;;;;;;;;;;;;;;;12.27;45.83;100168.16;4411511;32;19966;-68
2022/02/04 16:59:34;;;;;;;;;;;;;;;12.41;45.60;100174.00;4414202;32;20289;-70
2022/02/04 17:02:00;;;;;;;;;;;;;;;12.51;45.30;100169.97;4410585;32;19965;-70
2022/02/04 17:04:26;;;;;;;;;;;;;;;12.34;45.98;100174.31;4413917;32;19966;-69
2022/02/04 17:06:58;;;;;;;;;;;;;;;12.08;45.51;100167.28;4415425;32;20386;-69
2022/02/04 17:09:29;;;;;;;;;;;;;;;12.06;45.36;100172.59;4409785;32;20004;-69
2022/02/04 17:12:05;;;;;;;;;;;;;;;12.02;44.79;100174.75;4413006;32;19965;-70
2022/02/04 17:14:32;;;;;;;;;;;;;;;12.21;43.87;100170.00;4411891;32;20519;-69
2022/02/04 17:16:58;;;;;;;;;;;;;;;12.13;44.13;100174.34;4410414;32;20013;-69
2022/02/04 17:19:28;;;;;;;;;;;;;;;12.10;44.18;100178.88;4412931;32;19997;-69
2022/02/04 17:21:55;;;;;;;;;;;;;;;11.82;44.84;100185.63;4412465;32;19997;-69
2022/02/04 17:24:22;;;;;;;;;;;;;;;11.71;45.14;100174.75;4409672;32;19995;-68
2022/02/04 17:26:47;;;;;;;;;;;;;;;11.86;44.88;100178.59;4416677;32;19965;-68
2022/02/04 17:29:13;;;;;;;;;;;;;;;11.88;44.78;100184.53;4413585;32;19969;-68
2022/02/04 17:31:38;;;;;;;;;;;;;;;12.00;44.37;100180.84;4416370;32;19950;-69
2022/02/04 17:34:05;;;;;;;;;;;;;;;11.76;44.52;100193.09;4411421;32;20043;-69
2022/02/04 17:36:31;;;;;;;;;;;;;;;11.93;44.57;100180.34;4412456;32;20012;-69
2022/02/04 17:38:57;;;;;;;;;;;;;;;11.70;44.85;100198.53;4414511;32;20717;-69
2022/02/04 17:41:23;;;;;;;;;;;;;;;11.69;45.03;100211.03;4403502;32;20358;-68
2022/02/04 17:43:49;;;;;;;;;;;;;;;12.01;44.69;100209.84;4400579;32;20313;-68
2022/02/04 17:46:15;;;;;;;;;;;;;;;11.76;44.49;100221.28;4402526;32;20013;-68
2022/02/04 17:48:52;;;;;;;;;;;;;;;11.75;43.94;100219.69;4401459;32;20351;-69
2022/02/04 17:51:41;;;;;;;;;;;;;;;12.04;43.81;100223.03;4400592;32;19954;-69
2022/02/04 17:54:07;;;;;;;;;;;;;;;12.12;43.46;100224.31;4407000;32;19988;-69
2022/02/04 18:00:04;;;;;;;;;;;;;;;12.40;42.93;100245.81;3952829;32;15727976;-69
2022/02/04 18:07:25;;;;;;;;;;;;;;;12.83;42.54;100270.28;4436555;32;19957;-69
2022/02/04 18:09:51;;;;;;;;;;;;;;;12.40;42.98;100259.91;4430588;32;20469;-68
2022/02/04 18:12:28;;;;;;;;;;;;;;;12.20;43.42;100272.78;4433528;32;21102;-68
2022/02/04 18:14:54;;;;;;;;;;;;;;;12.07;43.42;100275.69;4434586;32;20422;-69
2022/02/04 18:17:19;;;;;;;;;;;;;;;12.15;43.33;100288.28;4434187;32;19983;-68
2022/02/04 18:19:45;;;;;;;;;;;;;;;12.08;43.28;100294.97;4431129;32;20023;-69
2022/02/04 18:22:11;;;;;;;;;;;;;;;11.85;42.63;100309.50;4433672;32;19976;-68
2022/02/04 18:24:38;;;;;;;;;;;;;;;11.51;42.78;100309.50;4433515;32;19996;-69
2022/02/04 18:27:07;;;;;;;;;;;;;;;11.80;42.81;100312.94;4434260;32;19964;-68
2022/02/04 18:29:33;;;;;;;;;;;;;;;11.52;43.10;100305.47;4433295;32;19995;-68
2022/02/04 18:31:59;;;;;;;;;;;;;;;11.77;42.51;100321.50;4422870;32;20029;-69
2022/02/04 18:34:24;;;;;;;;;;;;;;;11.71;42.80;100323.34;4434449;32;19985;-68
2022/02/04 18:36:53;;;;;;;;;;;;;;;11.57;42.82;100316.13;4431846;32;21259;-69
2022/02/04 18:39:29;;;;;;;;;;;;;;;11.96;42.00;100324.03;4434772;32;19997;-68
2022/02/04 18:44:48;;;;;;;;;;;;;;;11.74;42.49;100325.25;4433761;32;19964;-69
2022/02/04 18:47:34;;;;;;;;;;;;;;;11.98;42.39;100330.00;4419414;32;19980;-68
2022/02/04 18:50:06;;;;;;;;;;;;;;;12.01;42.19;100334.75;4424467;32;19961;-68
2022/02/04 18:52:39;;;;;;;;;;;;;;;12.21;41.90;100330.78;4430317;32;20127;-68
2022/02/04 18:57:51;;;;;;;;;;;;;;;11.94;42.21;100337.78;4433342;32;20000;-69
2022/02/04 19:00:18;;;;;;;;;;;;;;;11.97;42.21;100338.94;4430251;32;19996;-69
2022/02/04 19:02:48;;;;;;;;;;;;;;;12.08;41.96;100345.75;4421064;32;20015;-68
2022/02/04 19:05:20;;;;;;;;;;;;;;;12.17;41.87;100347.84;4432760;32;20017;-69
2022/02/04 19:07:56;;;;;;;;;;;;;;;12.08;42.22;100340.09;4429821;32;20013;-69
2022/02/04 19:10:22;;;;;;;;;;;;;;;11.75;42.50;100341.69;4432435;32;20295;-69
2022/02/04 19:12:53;;;;;;;;;;;;;;;12.05;42.53;100345.87;4430476;32;20322;-69
2022/02/04 19:15:41;;;;;;;;;;;;;;;11.52;43.50;100355.37;4424372;32;20308;-69
2022/02/04 19:18:10;;;;;;;;;;;;;;;11.60;43.67;100365.94;4419315;32;19996;-69
2022/02/04 19:20:41;;;;;;;;;;;;;;;11.73;43.23;100363.91;4422177;32;19945;-69
2022/02/04 19:23:12;;;;;;;;;;;;;;;11.88;42.90;100372.69;4422727;32;19984;-69
2022/02/04 19:25:40;;;;;;;;;;;;;;;11.43;43.42;100375.81;4421671;32;20003;-69
2022/02/04 19:28:08;;;;;;;;;;;;;;;11.68;43.47;100364.50;4423185;32;20009;-68
2022/02/04 19:30:37;;;;;;;;;;;;;;;11.60;43.39;100387.72;4419888;32;20092;-69
2022/02/04 19:33:03;;;;;;;;;;;;;;;11.78;43.14;100390.72;4419542;32;20069;-68
2022/02/04 19:35:29;;;;;;;;;;;;;;;11.63;43.33;100389.66;4423841;32;19989;-68
2022/02/04 19:37:56;;;;;;;;;;;;;;;11.91;42.76;100383.81;4420816;32;20342;-69
2022/02/04 19:40:21;;;;;;;;;;;;;;;11.58;43.48;100387.38;4421485;32;20342;-68
2022/02/04 19:42:49;;;;;;;;;;;;;;;11.85;42.91;100385.63;4425648;32;20002;-68
2022/02/04 19:45:20;;;;;;;;;;;;;;;11.96;43.20;100385.28;4424374;32;20438;-68
2022/02/04 19:47:51;;;;;;;;;;;;;;;12.33;42.44;100387.13;4422449;32;20269;-69
2022/02/04 20:07:02;;;;;;;;;;;;;;;13.07;42.78;100460.63;4422333;32;20342;-69